Time;durP1;ratioP1;P1;durP2;ratioP2;P2;SDS_P1;SDS_P2;PMS_P1;PMS_P2;Temp;Humidity;BMP_temperature;BMP_pressure;BME280_temperature;BME280_humidity;BME280_pressure;Samples;Min_cycle;Max_cycle;Signal;HPM_P1;HPM_P2
2023/01/27 00:01:26;;;;;;;17.20;12.07;;;1.20;1.00;;;;;;6253479;28;20234;-54
2023/01/27 00:04:29;;;;;;;14.03;11.67;;;1.50;1.00;;;;;;6258453;28;20239;-56
2023/01/27 00:07:32;;;;;;;14.90;11.63;;;1.10;1.00;;;;;;6260061;28;20229;-53
2023/01/27 00:10:35;;;;;;;15.20;11.90;;;1.20;1.00;;;;;;6259231;28;20886;-55
2023/01/27 00:13:39;;;;;;;12.77;10.80;;;1.20;1.00;;;;;;6235139;28;20241;-53
2023/01/27 00:16:42;;;;;;;18.83;12.00;;;1.20;1.00;;;;;;6235459;28;20230;-54
2023/01/27 00:19:45;;;;;;;15.77;11.53;;;1.10;1.00;;;;;;6234830;28;20269;-55
2023/01/27 00:26:11;;;;;;;15.10;11.43;;;1.40;1.00;;;;;;6251802;28;20358;-53
2023/01/27 00:29:15;;;;;;;17.00;11.63;;;1.20;1.00;;;;;;6259684;28;20253;-53
2023/01/27 00:35:39;;;;;;;16.83;12.03;;;1.30;1.00;;;;;;6255169;28;20238;-54
2023/01/27 00:38:42;;;;;;;16.27;11.63;;;1.40;1.00;;;;;;6256775;28;20605;-55
2023/01/27 00:41:46;;;;;;;16.87;12.13;;;1.40;1.00;;;;;;6259324;28;20238;-55
2023/01/27 00:48:10;;;;;;;17.53;11.53;;;1.40;1.00;;;;;;6236957;28;20245;-55
2023/01/27 00:51:14;;;;;;;17.13;11.70;;;1.30;1.00;;;;;;6259928;28;20226;-54
2023/01/27 00:54:17;;;;;;;19.03;12.77;;;1.40;1.00;;;;;;6254045;28;20300;-55
2023/01/27 00:57:20;;;;;;;21.23;13.93;;;1.40;1.00;;;;;;6257850;28;20610;-54
2023/01/27 01:00:25;;;;;;;17.10;12.10;;;1.30;1.00;;;;;;6260055;28;20246;-56
2023/01/27 01:03:30;;;;;;;17.87;12.40;;;1.10;1.00;;;;;;6260530;28;20244;-54
2023/01/27 01:06:33;;;;;;;16.77;11.53;;;1.40;1.00;;;;;;6253615;28;20498;-56
2023/01/27 01:09:36;;;;;;;16.10;12.23;;;1.30;1.00;;;;;;6257545;28;20238;-54
2023/01/27 01:12:39;;;;;;;16.53;12.63;;;1.20;1.00;;;;;;6242510;28;20238;-54
2023/01/27 01:15:43;;;;;;;19.20;12.20;;;1.20;1.00;;;;;;6233681;28;20238;-55
2023/01/27 01:18:47;;;;;;;20.10;13.00;;;1.30;1.00;;;;;;6236041;28;20334;-55
2023/01/27 01:21:50;;;;;;;19.03;12.80;;;1.30;1.00;;;;;;6237518;28;20717;-56
2023/01/27 01:24:53;;;;;;;18.07;12.87;;;1.10;1.00;;;;;;6239986;28;20245;-53
2023/01/27 01:27:56;;;;;;;18.80;12.67;;;1.30;1.00;;;;;;6256772;28;20321;-54
2023/01/27 01:31:06;;;;;;;18.03;13.27;;;1.00;1.00;;;;;;6233294;28;20235;-53
2023/01/27 01:34:09;;;;;;;26.60;14.00;;;1.30;1.00;;;;;;6253475;28;20266;-54
2023/01/27 01:37:12;;;;;;;23.40;14.03;;;1.20;1.00;;;;;;6258773;28;20703;-55
2023/01/27 01:40:15;;;;;;;20.73;13.57;;;1.10;1.00;;;;;;6254683;28;20260;-54
2023/01/27 01:43:21;;;;;;;20.50;12.77;;;1.20;1.00;;;;;;6258972;28;20387;-54
2023/01/27 01:46:26;;;;;;;21.03;13.27;;;1.30;1.00;;;;;;6234684;28;20602;-54
2023/01/27 01:49:34;;;;;;;24.27;13.53;;;1.20;1.00;;;;;;6232891;28;20285;-55
2023/01/27 01:52:37;;;;;;;21.97;13.43;;;1.40;1.00;;;;;;6254392;28;20245;-55
2023/01/27 01:55:41;;;;;;;19.97;13.40;;;1.40;1.00;;;;;;6259209;28;20230;-54
2023/01/27 01:58:46;;;;;;;24.80;14.17;;;1.30;1.00;;;;;;6263298;28;20244;-54
2023/01/27 02:01:52;;;;;;;22.10;13.80;;;1.30;1.00;;;;;;6262029;28;20484;-56
2023/01/27 02:05:00;;;;;;;20.10;13.47;;;1.30;1.00;;;;;;6264078;28;20717;-54
2023/01/27 02:08:09;;;;;;;25.07;14.87;;;1.30;1.00;;;;;;6262185;28;20244;-55
2023/01/27 02:11:12;;;;;;;21.17;13.53;;;1.40;1.00;;;;;;6254501;28;20586;-54
2023/01/27 02:14:17;;;;;;;19.50;13.53;;;1.30;1.00;;;;;;6238928;28;20237;-53
2023/01/27 02:17:22;;;;;;;19.80;13.33;;;1.20;1.00;;;;;;6229203;28;20242;-54
2023/01/27 02:20:31;;;;;;;17.90;13.43;;;1.40;1.00;;;;;;6236532;28;20763;-55
2023/01/27 02:23:45;;;;;;;21.13;13.47;;;1.40;1.00;;;;;;6237294;28;20239;-55
2023/01/27 02:26:50;;;;;;;17.47;13.20;;;1.30;1.00;;;;;;6258116;28;20294;-55
2023/01/27 02:29:53;;;;;;;14.33;12.00;;;1.20;1.00;;;;;;6261360;28;20440;-53
2023/01/27 02:32:56;;;;;;;18.47;13.07;;;1.50;1.00;;;;;;6248998;28;20238;-54
2023/01/27 02:36:03;;;;;;;15.33;12.53;;;1.40;1.00;;;;;;6260569;28;20325;-56
2023/01/27 02:39:10;;;;;;;14.60;12.30;;;1.30;1.00;;;;;;6260322;28;20237;-54
2023/01/27 02:42:15;;;;;;;16.47;12.73;;;1.30;1.00;;;;;;6237376;28;20606;-55
2023/01/27 02:45:18;;;;;;;13.70;11.47;;;1.20;1.00;;;;;;6236801;28;20610;-54
2023/01/27 02:48:22;;;;;;;14.63;11.93;;;1.40;1.00;;;;;;6236691;28;20634;-56
2023/01/27 02:51:25;;;;;;;17.87;12.47;;;1.60;1.00;;;;;;6231642;28;20238;-54
2023/01/27 02:54:30;;;;;;;16.83;12.43;;;1.60;1.00;;;;;;6247088;28;20253;-55
2023/01/27 02:57:34;;;;;;;17.50;12.97;;;1.40;1.00;;;;;;6261320;28;20717;-55
2023/01/27 03:00:37;;;;;;;17.37;12.83;;;1.60;1.00;;;;;;6249297;28;20254;-53
2023/01/27 03:03:42;;;;;;;15.43;12.57;;;1.30;1.00;;;;;;6250352;28;20299;-54
2023/01/27 03:06:46;;;;;;;16.30;12.53;;;1.70;1.00;;;;;;6263576;28;20309;-53
2023/01/27 03:09:49;;;;;;;18.00;12.57;;;1.30;1.00;;;;;;6260316;28;20611;-55
2023/01/27 03:12:53;;;;;;;15.33;13.07;;;1.50;1.00;;;;;;6260890;28;20234;-54
2023/01/27 03:19:19;;;;;;;14.40;11.07;;;1.40;1.00;;;;;;6236959;28;20245;-57
2023/01/27 03:22:22;;;;;;;16.20;11.77;;;1.40;1.00;;;;;;6255709;28;20814;-55
2023/01/27 03:25:25;;;;;;;14.57;12.17;;;1.50;1.00;;;;;;6255668;28;20229;-54
2023/01/27 03:28:30;;;;;;;15.30;12.30;;;1.70;1.00;;;;;;6248432;28;20242;-54
2023/01/27 03:31:33;;;;;;;15.13;12.10;;;1.60;1.00;;;;;;6236252;28;20251;-56
2023/01/27 03:34:36;;;;;;;14.73;11.40;;;1.50;1.00;;;;;;6267509;28;20263;-54
2023/01/27 03:47:45;;;;;;;15.13;11.80;;;1.60;1.00;;;;;;6239131;28;20615;-55
2023/01/27 03:50:51;;;;;;;15.60;12.13;;;1.70;1.00;;;;;;6235005;28;20507;-55
2023/01/27 03:53:55;;;;;;;14.27;12.57;;;1.50;1.00;;;;;;6241365;28;20234;-55
2023/01/27 03:57:04;;;;;;;14.67;11.77;;;1.50;1.00;;;;;;6243947;28;20276;-53
2023/01/27 04:00:11;;;;;;;12.67;11.13;;;1.70;1.00;;;;;;6234556;28;20241;-55
2023/01/27 04:06:56;;;;;;;13.97;11.70;;;1.70;1.00;;;;;;6247068;28;20231;-55
2023/01/27 04:10:00;;;;;;;13.77;11.50;;;1.60;1.00;;;;;;6258359;28;20654;-55
2023/01/27 04:13:02;;;;;;;14.97;11.57;;;1.60;1.00;;;;;;6260447;28;20238;-55
2023/01/27 04:16:07;;;;;;;12.97;11.60;;;1.50;1.00;;;;;;6249152;28;20823;-54
2023/01/27 04:19:11;;;;;;;11.23;9.90;;;1.70;1.00;;;;;;6234875;28;20337;-54
2023/01/27 04:22:15;;;;;;;11.00;9.90;;;1.70;1.00;;;;;;6234307;28;20230;-55
2023/01/27 04:25:18;;;;;;;11.40;10.30;;;1.50;1.00;;;;;;6243337;28;20234;-55
2023/01/27 04:28:21;;;;;;;9.90;8.90;;;1.60;1.00;;;;;;6257706;28;20729;-55
2023/01/27 04:31:46;;;;;;;10.47;9.47;;;1.70;1.00;;;;;;6243535;28;20238;-56
2023/01/27 04:34:49;;;;;;;9.93;8.87;;;1.60;1.00;;;;;;6253388;28;20241;-55
2023/01/27 04:37:52;;;;;;;10.07;9.00;;;1.50;1.00;;;;;;6257020;28;20237;-54
2023/01/27 04:40:55;;;;;;;10.83;9.73;;;1.40;1.00;;;;;;6250257;28;20250;-55
2023/01/27 04:43:58;;;;;;;11.60;9.60;;;1.50;1.00;;;;;;6257879;28;20726;-55
2023/01/27 04:47:02;;;;;;;10.87;9.73;;;1.50;1.00;;;;;;6251437;28;20244;-55
2023/01/27 04:50:06;;;;;;;11.17;9.60;;;1.60;1.00;;;;;;6254382;28;20729;-55
2023/01/27 04:53:09;;;;;;;11.03;9.00;;;1.70;1.00;;;;;;6241991;28;20473;-55
2023/01/27 04:56:21;;;;;;;10.50;8.87;;;1.60;1.00;;;;;;6246387;28;20723;-56
2023/01/27 04:59:24;;;;;;;8.87;8.07;;;1.60;1.00;;;;;;6252582;28;20246;-55
2023/01/27 05:02:29;;;;;;;9.10;8.23;;;1.60;1.00;;;;;;6256548;28;20706;-53
2023/01/27 05:05:32;;;;;;;9.57;8.27;;;1.50;1.00;;;;;;6251411;28;20234;-55
2023/01/27 05:08:35;;;;;;;9.20;8.30;;;1.50;1.00;;;;;;6248659;28;20635;-55
2023/01/27 05:11:38;;;;;;;9.83;8.80;;;1.90;1.00;;;;;;6255457;28;20230;-56
2023/01/27 05:14:41;;;;;;;10.87;8.70;;;1.70;1.00;;;;;;6255956;28;20504;-56
2023/01/27 05:17:45;;;;;;;10.67;8.70;;;1.90;1.00;;;;;;6247879;28;20235;-54
2023/01/27 05:20:48;;;;;;;11.33;9.17;;;1.40;1.00;;;;;;6254835;28;20237;-55
2023/01/27 05:23:54;;;;;;;9.60;8.60;;;1.60;1.00;;;;;;6252134;28;20385;-54
2023/01/27 05:26:57;;;;;;;10.13;9.13;;;1.90;1.00;;;;;;6248890;28;20687;-54
2023/01/27 05:30:00;;;;;;;9.47;8.57;;;1.80;1.00;;;;;;6251162;28;20250;-56
2023/01/27 05:33:05;;;;;;;9.70;8.50;;;1.70;1.00;;;;;;6258604;28;20237;-55
2023/01/27 05:36:11;;;;;;;10.37;9.30;;;1.70;1.00;;;;;;6257363;28;20733;-56
2023/01/27 05:39:14;;;;;;;8.93;8.03;;;1.80;1.00;;;;;;6255499;28;20741;-53
